Terminal Aerodrome Forecast
Issued by NWS

Home | Current Version | Previous Version | Graphics & Text | Print | Product List | Glossary On
Versions: 1 2 3 4 5 6 7 8 9 10 11 12 13 14 15 16
761
FTUS43 KIWX 212112 AAA
TAFSBN
TAF AMD
KSBN 212112Z 2121/2218 16005KT 3/4SM -DZ BR OVC003
      TEMPO 2121/2124 1/4SM -DZ FG VV002
     FM221500 15010G20KT 1SM RA BR OVC003=

USA.gov is the U.S. government's official web portal to all federal, state and local government web resources and services.